Time;durP1;ratioP1;P1;durP2;ratioP2;P2;SDS_P1;SDS_P2;PMS_P1;PMS_P2;Temp;Humidity;BMP_temperature;BMP_pressure;BME280_temperature;BME280_humidity;BME280_pressure;Samples;Min_cycle;Max_cycle;Signal;HPM_P1;HPM_P2
2023/05/25 00:01:18;;;;;;;20.85;11.40;;;18.60;99.90;;;;;;5114349;28;20030;-76
2023/05/25 00:03:44;;;;;;;18.40;11.90;;;18.50;99.90;;;;;;5117142;28;20027;-77
2023/05/25 00:06:10;;;;;;;17.38;11.45;;;18.50;99.90;;;;;;5117504;28;20354;-78
2023/05/25 00:08:39;;;;;;;23.10;11.15;;;18.50;99.90;;;;;;5098984;28;20024;-79
2023/05/25 00:11:05;;;;;;;18.63;11.05;;;18.50;99.90;;;;;;5099241;28;20027;-78
2023/05/25 00:13:31;;;;;;;27.00;11.50;;;18.40;99.90;;;;;;5074201;28;20040;-78
2023/05/25 00:15:57;;;;;;;18.60;11.20;;;18.40;99.90;;;;;;5074339;28;20119;-78
2023/05/25 00:18:23;;;;;;;18.90;10.65;;;18.30;99.90;;;;;;5073960;28;20132;-77
2023/05/25 00:20:52;;;;;;;22.50;11.32;;;18.30;99.90;;;;;;5069677;28;20035;-77
2023/05/25 00:23:19;;;;;;;17.77;11.55;;;18.30;99.90;;;;;;5071311;28;20025;-78
2023/05/25 00:25:45;;;;;;;25.05;11.90;;;18.20;99.90;;;;;;5070727;28;20053;-77
2023/05/25 00:28:11;;;;;;;20.55;11.30;;;18.30;99.90;;;;;;5044855;28;20033;-78
2023/05/25 00:30:37;;;;;;;19.20;12.23;;;18.20;99.90;;;;;;5074253;28;20107;-78
2023/05/25 00:33:03;;;;;;;18.02;10.88;;;18.20;99.90;;;;;;5057158;28;20021;-77
2023/05/25 00:35:28;;;;;;;17.13;11.05;;;18.10;99.90;;;;;;5056859;28;20029;-77
2023/05/25 00:37:54;;;;;;;20.92;11.82;;;18.10;99.90;;;;;;5073445;28;20047;-77
2023/05/25 00:40:20;;;;;;;20.85;12.70;;;18.00;99.90;;;;;;5073909;28;20028;-77
2023/05/25 00:42:46;;;;;;;22.90;12.95;;;17.90;99.90;;;;;;5056655;28;20072;-77
2023/05/25 00:45:12;;;;;;;20.05;12.50;;;17.90;99.90;;;;;;5074229;28;20071;-77
2023/05/25 00:47:41;;;;;;;19.00;12.00;;;17.80;99.90;;;;;;5073674;28;20390;-77
2023/05/25 00:50:09;;;;;;;24.00;12.27;;;17.80;99.90;;;;;;5080594;28;20166;-77
2023/05/25 00:52:35;;;;;;;28.08;13.15;;;17.80;99.90;;;;;;5116517;28;20562;-78
2023/05/25 00:55:02;;;;;;;23.85;12.25;;;17.70;99.90;;;;;;5116628;28;20024;-78
2023/05/25 00:57:32;;;;;;;23.85;11.75;;;17.70;99.90;;;;;;5115815;28;20408;-77
2023/05/25 01:00:00;;;;;;;20.27;12.20;;;17.70;99.90;;;;;;5098376;28;20027;-77
2023/05/25 01:02:27;;;;;;;26.83;12.63;;;17.60;99.90;;;;;;5116301;28;20454;-78
2023/05/25 01:04:58;;;;;;;28.90;12.45;;;17.60;99.90;;;;;;5115435;28;20393;-77
2023/05/25 01:07:26;;;;;;;20.17;13.20;;;17.60;99.90;;;;;;5116393;28;20032;-78
2023/05/25 01:10:05;;;;;;;18.17;11.68;;;17.60;99.90;;;;;;5098018;28;20385;-77
2023/05/25 01:12:36;;;;;;;20.15;12.48;;;17.60;99.90;;;;;;5116138;28;20123;-78
2023/05/25 01:15:04;;;;;;;15.63;11.38;;;17.60;99.90;;;;;;5115438;28;20032;-77
2023/05/25 01:17:31;;;;;;;16.23;11.77;;;17.60;99.90;;;;;;5090198;28;20381;-77
2023/05/25 01:20:00;;;;;;;17.08;11.38;;;17.50;99.90;;;;;;5115282;28;20115;-78
2023/05/25 01:22:50;;;;;;;20.27;12.13;;;17.60;99.90;;;;;;5111628;28;20045;-77
2023/05/25 01:25:33;;;;;;;28.90;15.05;;;17.60;99.90;;;;;;5114778;28;20040;-78
2023/05/25 01:28:02;;;;;;;24.42;14.68;;;17.60;99.90;;;;;;5113794;28;20024;-77
2023/05/25 01:30:31;;;;;;;22.85;13.48;;;17.50;99.90;;;;;;5115105;28;20031;-77
2023/05/25 01:32:58;;;;;;;23.30;12.30;;;17.50;99.90;;;;;;5096368;28;20443;-78
2023/05/25 01:35:26;;;;;;;17.63;11.38;;;17.60;99.90;;;;;;5096865;28;20035;-77
2023/05/25 01:37:52;;;;;;;18.05;12.52;;;17.60;99.90;;;;;;5096860;28;20466;-78
2023/05/25 01:40:17;;;;;;;17.00;11.57;;;17.50;99.90;;;;;;5114760;28;20046;-78
2023/05/25 01:42:43;;;;;;;15.43;11.55;;;17.60;99.90;;;;;;5096747;28;20024;-77
2023/05/25 01:45:10;;;;;;;21.40;12.80;;;17.60;99.90;;;;;;5114009;28;20373;-77
2023/05/25 01:48:08;;;;;;;18.35;12.15;;;17.60;99.90;;;;;;5096585;28;20032;-78
2023/05/25 01:51:03;;;;;;;20.38;12.07;;;17.50;99.90;;;;;;5010788;28;20218;-77
2023/05/25 01:53:42;;;;;;;19.20;11.18;;;17.50;99.90;;;;;;4992509;28;20138;-78
2023/05/25 01:56:10;;;;;;;21.45;12.32;;;17.50;99.90;;;;;;4995660;28;20025;-77
2023/05/25 01:58:41;;;;;;;18.92;11.60;;;17.40;99.90;;;;;;4995448;28;20639;-78
2023/05/25 02:01:13;;;;;;;17.02;11.43;;;17.40;99.90;;;;;;5011757;28;20056;-79
2023/05/25 02:03:43;;;;;;;20.77;10.68;;;17.40;99.90;;;;;;5012039;28;20042;-78
2023/05/25 02:06:09;;;;;;;21.08;10.60;;;17.30;99.90;;;;;;5011550;28;20045;-77
2023/05/25 02:08:35;;;;;;;17.42;10.32;;;17.30;99.90;;;;;;5011915;28;20129;-78
2023/05/25 02:11:02;;;;;;;14.98;10.32;;;17.30;99.90;;;;;;5011999;28;20112;-78
2023/05/25 02:13:28;;;;;;;18.00;10.32;;;17.20;99.90;;;;;;5011976;28;20037;-78
2023/05/25 02:15:53;;;;;;;16.75;10.57;;;17.20;99.90;;;;;;5011894;28;20458;-78
2023/05/25 02:18:19;;;;;;;16.90;10.25;;;17.20;99.90;;;;;;4995199;28;20029;-76
2023/05/25 02:20:46;;;;;;;18.02;9.55;;;17.20;99.90;;;;;;5011572;28;20038;-77
2023/05/25 02:23:12;;;;;;;17.40;9.98;;;17.20;99.90;;;;;;5011842;28;20026;-78
2023/05/25 02:25:38;;;;;;;14.57;9.32;;;17.20;99.90;;;;;;5011605;28;20466;-77
2023/05/25 02:28:04;;;;;;;15.15;9.55;;;17.20;99.90;;;;;;5111876;28;20038;-79
2023/05/25 02:30:30;;;;;;;13.80;9.10;;;17.10;99.90;;;;;;5095958;28;20476;-78
2023/05/25 02:32:55;;;;;;;18.50;10.13;;;17.10;99.90;;;;;;5113742;28;20028;-79
2023/05/25 02:35:21;;;;;;;15.20;9.27;;;17.00;99.90;;;;;;5113530;28;20031;-77
2023/05/25 02:37:47;;;;;;;17.13;9.15;;;17.00;99.90;;;;;;5095738;28;20039;-78
2023/05/25 02:40:13;;;;;;;12.82;9.15;;;17.00;99.90;;;;;;5095608;28;20057;-78
2023/05/25 02:42:39;;;;;;;16.65;10.00;;;17.00;99.90;;;;;;5113198;28;20064;-77
2023/05/25 02:45:09;;;;;;;17.60;9.45;;;16.90;99.90;;;;;;5113957;28;20040;-77
2023/05/25 02:47:35;;;;;;;13.02;9.48;;;16.90;99.90;;;;;;5113935;28;20024;-78
2023/05/25 02:50:01;;;;;;;15.48;9.68;;;16.80;99.90;;;;;;5113688;28;20045;-79
2023/05/25 02:52:29;;;;;;;16.90;8.98;;;16.80;99.90;;;;;;5113282;28;20027;-76
2023/05/25 02:54:55;;;;;;;12.27;8.50;;;16.70;99.90;;;;;;5114572;28;20115;-78
2023/05/25 02:57:22;;;;;;;11.85;8.43;;;16.70;99.90;;;;;;5112157;28;20062;-77
2023/05/25 02:59:48;;;;;;;19.58;8.93;;;16.70;99.90;;;;;;5113226;28;20069;-77
2023/05/25 03:02:17;;;;;;;14.65;9.05;;;16.70;99.90;;;;;;5095373;28;20028;-76
2023/05/25 03:04:44;;;;;;;11.90;8.80;;;16.70;99.90;;;;;;5113926;28;20105;-78
2023/05/25 03:07:11;;;;;;;17.10;8.60;;;16.70;99.90;;;;;;5096074;28;20478;-77
2023/05/25 03:09:37;;;;;;;14.02;9.02;;;16.60;99.90;;;;;;5095727;28;20461;-78
2023/05/25 03:12:03;;;;;;;15.98;8.30;;;16.60;99.90;;;;;;5114189;28;20024;-77
2023/05/25 03:14:29;;;;;;;18.33;8.30;;;16.70;99.90;;;;;;5095868;28;20034;-79
2023/05/25 03:16:55;;;;;;;13.18;7.95;;;16.70;99.90;;;;;;5113855;28;20415;-79
2023/05/25 03:19:20;;;;;;;13.25;8.45;;;16.70;99.90;;;;;;5096037;28;20036;-77
2023/05/25 03:21:46;;;;;;;12.27;8.07;;;16.60;99.90;;;;;;5114289;28;20417;-78
2023/05/25 03:24:12;;;;;;;13.57;8.30;;;16.60;99.90;;;;;;5113342;28;20028;-78
2023/05/25 03:26:38;;;;;;;15.48;9.15;;;16.60;99.90;;;;;;5094878;28;20044;-78
2023/05/25 03:29:07;;;;;;;20.08;10.65;;;16.60;99.90;;;;;;5113743;28;20051;-77
2023/05/25 03:31:33;;;;;;;19.10;10.80;;;16.60;99.90;;;;;;5113275;28;20024;-78
2023/05/25 03:33:58;;;;;;;19.25;9.10;;;16.60;99.90;;;;;;5113440;28;20031;-78
2023/05/25 03:36:29;;;;;;;14.65;9.00;;;16.60;99.90;;;;;;5113277;28;20020;-77
2023/05/25 03:38:55;;;;;;;14.23;9.00;;;16.60;99.90;;;;;;5094963;28;20090;-77
2023/05/25 03:41:21;;;;;;;13.57;9.00;;;16.60;99.90;;;;;;5113032;28;20058;-77
2023/05/25 03:43:46;;;;;;;13.82;8.48;;;16.60;99.90;;;;;;5094581;28;20036;-78
2023/05/25 03:46:12;;;;;;;17.73;9.27;;;16.60;99.90;;;;;;5113196;28;20031;-78
2023/05/25 03:48:38;;;;;;;13.70;8.57;;;16.70;99.90;;;;;;5113184;28;20028;-77
2023/05/25 03:51:04;;;;;;;19.48;9.13;;;16.70;99.90;;;;;;5108313;28;20103;-77
2023/05/25 03:53:30;;;;;;;13.38;8.95;;;16.80;99.90;;;;;;5093311;28;20032;-77
2023/05/25 03:55:56;;;;;;;17.35;9.00;;;16.80;99.90;;;;;;5094877;28;20114;-78
2023/05/25 03:58:22;;;;;;;15.95;8.45;;;16.80;99.90;;;;;;5103821;28;20039;-79
2023/05/25 04:00:49;;;;;;;18.75;9.02;;;16.90;99.90;;;;;;5098756;28;20088;-77
2023/05/25 04:03:15;;;;;;;16.10;8.77;;;16.90;99.90;;;;;;5113419;28;20099;-78
2023/05/25 04:05:40;;;;;;;12.75;8.55;;;16.90;99.90;;;;;;5112658;28;20130;-77
2023/05/25 04:08:07;;;;;;;13.48;8.35;;;16.90;99.90;;;;;;5094881;28;20034;-77
2023/05/25 04:10:33;;;;;;;15.77;8.80;;;17.00;99.90;;;;;;5113597;28;20030;-78
2023/05/25 04:12:59;;;;;;;13.70;8.30;;;17.00;99.90;;;;;;5096419;28;20027;-77
2023/05/25 04:15:25;;;;;;;16.48;8.50;;;17.00;99.90;;;;;;5116717;28;20035;-78
2023/05/25 04:17:51;;;;;;;12.02;7.32;;;17.00;99.90;;;;;;5116953;28;20099;-77
2023/05/25 04:20:16;;;;;;;11.02;7.57;;;17.10;99.90;;;;;;5116533;28;20534;-77
2023/05/25 04:22:43;;;;;;;13.25;8.30;;;17.10;99.90;;;;;;5117366;28;20050;-79
2023/05/25 04:25:09;;;;;;;12.70;7.95;;;17.10;99.90;;;;;;5116871;28;20027;-77
2023/05/25 04:27:36;;;;;;;12.50;7.75;;;17.20;99.90;;;;;;5097870;28;20063;-76
2023/05/25 04:30:03;;;;;;;10.90;7.57;;;17.20;99.90;;;;;;5098353;28;20031;-78
2023/05/25 04:32:30;;;;;;;10.88;7.60;;;17.30;99.90;;;;;;5098648;28;20381;-77
2023/05/25 04:34:57;;;;;;;15.32;8.68;;;17.30;99.90;;;;;;5116685;28;20047;-77
2023/05/25 04:37:27;;;;;;;11.68;7.45;;;17.30;99.90;;;;;;5116935;28;20550;-78
2023/05/25 04:39:53;;;;;;;15.43;8.40;;;17.30;99.90;;;;;;5098559;28;20034;-80
2023/05/25 04:42:22;;;;;;;11.50;6.95;;;17.30;99.90;;;;;;5116374;28;20024;-78
2023/05/25 04:44:58;;;;;;;10.05;7.60;;;17.20;99.90;;;;;;5116795;28;20026;-77
2023/05/25 04:47:24;;;;;;;8.48;6.57;;;17.30;99.90;;;;;;5095857;28;20036;-77
2023/05/25 04:49:50;;;;;;;14.75;7.68;;;17.40;99.90;;;;;;5114094;28;20118;-77
2023/05/25 04:52:16;;;;;;;12.52;7.22;;;17.50;99.90;;;;;;5116587;28;20074;-78
2023/05/25 04:54:42;;;;;;;12.05;7.43;;;17.50;99.90;;;;;;5098059;28;20035;-76
2023/05/25 04:57:08;;;;;;;14.50;8.80;;;17.50;99.90;;;;;;5098273;28;20028;-77
2023/05/25 04:59:34;;;;;;;12.00;7.55;;;17.60;99.90;;;;;;5073457;28;20114;-77
2023/05/25 05:01:59;;;;;;;10.05;7.10;;;17.60;99.90;;;;;;5073192;28;20094;-77
2023/05/25 05:04:25;;;;;;;11.15;7.40;;;17.70;99.90;;;;;;5056506;28;20041;-77
2023/05/25 05:06:51;;;;;;;11.23;8.07;;;17.60;99.90;;;;;;5073388;28;20535;-76
2023/05/25 05:09:17;;;;;;;12.23;8.50;;;17.60;99.90;;;;;;5056198;28;20041;-77
2023/05/25 05:11:42;;;;;;;12.55;8.02;;;17.70;99.90;;;;;;5073356;28;20040;-77
2023/05/25 05:14:08;;;;;;;11.15;7.97;;;17.70;99.90;;;;;;5073163;28;20082;-79
2023/05/25 05:16:34;;;;;;;10.88;7.43;;;17.70;99.90;;;;;;5072888;28;20123;-76
2023/05/25 05:19:00;;;;;;;12.10;8.02;;;17.80;99.90;;;;;;5073134;28;20517;-76
2023/05/25 05:21:26;;;;;;;12.30;7.70;;;17.80;99.90;;;;;;5056256;28;20055;-77
2023/05/25 05:23:52;;;;;;;12.85;7.60;;;17.80;99.90;;;;;;5072786;28;20024;-78
2023/05/25 05:26:18;;;;;;;10.95;7.88;;;17.80;99.90;;;;;;5072766;28;20150;-78
2023/05/25 05:28:44;;;;;;;11.23;8.02;;;17.80;99.90;;;;;;5072909;28;20032;-77
2023/05/25 05:31:10;;;;;;;12.80;8.05;;;17.80;99.90;;;;;;5087150;28;20043;-77
2023/05/25 05:33:36;;;;;;;10.02;7.68;;;17.80;99.90;;;;;;5097502;28;20469;-77
2023/05/25 05:36:03;;;;;;;10.52;8.05;;;17.90;99.90;;;;;;5097173;28;20106;-77
2023/05/25 05:38:29;;;;;;;14.27;9.32;;;18.00;99.90;;;;;;5115838;28;20039;-78
2023/05/25 05:40:55;;;;;;;10.20;7.63;;;18.10;99.90;;;;;;5115350;28;20038;-78
2023/05/25 05:43:21;;;;;;;12.07;7.47;;;18.10;99.90;;;;;;5115351;28;20389;-78
2023/05/25 05:45:47;;;;;;;14.52;7.75;;;18.30;99.90;;;;;;5115607;28;20039;-79
2023/05/25 05:48:13;;;;;;;10.82;8.20;;;18.30;99.90;;;;;;5097164;28;20038;-78
2023/05/25 05:50:39;;;;;;;13.63;8.43;;;18.40;99.90;;;;;;5096830;28;20461;-77
2023/05/25 05:53:05;;;;;;;12.00;8.23;;;18.50;99.90;;;;;;5115431;28;20111;-78
2023/05/25 05:55:32;;;;;;;10.50;8.10;;;18.60;99.90;;;;;;5097044;28;20384;-80
2023/05/25 05:57:58;;;;;;;11.27;8.43;;;18.70;99.90;;;;;;5111827;28;20032;-79
2023/05/25 06:00:24;;;;;;;11.52;8.15;;;18.70;99.90;;;;;;5094715;28;20420;-79
2023/05/25 06:02:50;;;;;;;11.68;8.43;;;18.90;99.90;;;;;;5113596;28;20526;-78
2023/05/25 06:05:16;;;;;;;13.80;7.80;;;18.90;99.90;;;;;;5096322;28;20047;-78
2023/05/25 06:07:42;;;;;;;9.70;7.35;;;18.90;99.90;;;;;;5097033;28;20051;-78
2023/05/25 06:10:08;;;;;;;12.77;8.15;;;19.00;99.90;;;;;;5096856;28;20039;-80
2023/05/25 06:12:34;;;;;;;13.45;7.95;;;19.00;99.90;;;;;;5114744;28;20036;-79
2023/05/25 06:15:00;;;;;;;12.63;7.28;;;19.00;99.90;;;;;;5114980;28;20023;-79
2023/05/25 06:17:28;;;;;;;10.38;7.80;;;19.10;99.90;;;;;;5096661;28;20027;-80
2023/05/25 06:19:54;;;;;;;12.23;7.50;;;19.20;99.90;;;;;;5096403;28;20449;-80
2023/05/25 06:22:21;;;;;;;9.52;7.47;;;;;;;;;;5114500;28;20030;-80
2023/05/25 06:24:47;;;;;;;10.77;7.55;;;19.50;99.90;;;;;;5114828;28;20020;-79
2023/05/25 06:27:12;;;;;;;9.68;7.72;;;19.40;99.90;;;;;;5114195;28;20457;-79
2023/05/25 06:29:38;;;;;;;9.98;7.75;;;;;;;;;;5096524;28;20038;-80
2023/05/25 06:32:05;;;;;;;11.18;7.10;;;19.60;99.90;;;;;;5114394;28;20065;-81
2023/05/25 06:34:31;;;;;;;9.07;7.40;;;;;;;;;;5114379;28;20043;-79
2023/05/25 06:36:56;;;;;;;9.65;7.50;;;19.50;99.90;;;;;;5114011;28;20020;-81
2023/05/25 06:39:22;;;;;;;9.90;8.32;;;19.60;99.90;;;;;;5114251;28;20652;-79
2023/05/25 06:41:49;;;;;;;14.77;7.85;;;19.70;99.90;;;;;;5114448;28;20032;-79
2023/05/25 06:44:15;;;;;;;14.48;8.38;;;19.80;99.90;;;;;;5114594;28;20442;-81
2023/05/25 06:46:41;;;;;;;10.35;8.60;;;;;;;;;;5096133;28;20046;-79
2023/05/25 06:49:07;;;;;;;13.82;8.88;;;;;;;;;;5096284;28;20031;-79
2023/05/25 06:51:33;;;;;;;10.75;8.20;;;;;;;;;;5114599;28;20027;-80
2023/05/25 06:54:00;;;;;;;13.57;8.13;;;;;;;;;;5114106;28;20148;-78
2023/05/25 06:56:26;;;;;;;10.73;8.00;;;;;;;;;;5114144;28;20397;-80
2023/05/25 06:58:52;;;;;;;11.32;7.85;;;20.50;99.90;;;;;;5096047;28;20115;-79
2023/05/25 07:01:18;;;;;;;12.93;8.55;;;;;;;;;;5113549;28;20117;-78
2023/05/25 07:03:44;;;;;;;15.60;9.70;;;20.80;99.90;;;;;;5114305;28;20024;-78
2023/05/25 07:06:11;;;;;;;10.60;8.75;;;20.80;99.90;;;;;;5095680;28;20044;-79
2023/05/25 07:08:37;;;;;;;11.35;8.57;;;20.90;99.90;;;;;;5095665;28;20028;-78
2023/05/25 07:11:03;;;;;;;10.75;8.75;;;21.10;99.90;;;;;;5095901;28;20032;-81
2023/05/25 07:13:28;;;;;;;15.48;8.65;;;21.10;99.90;;;;;;5113882;28;20023;-79
2023/05/25 07:15:54;;;;;;;13.20;7.75;;;21.30;99.90;;;;;;5113864;28;20035;-80
2023/05/25 07:18:20;;;;;;;12.82;8.07;;;21.40;99.90;;;;;;5113850;28;20430;-79
2023/05/25 07:20:47;;;;;;;10.07;8.45;;;21.40;99.90;;;;;;5095816;28;20462;-81
2023/05/25 07:23:13;;;;;;;13.75;10.98;;;21.50;99.90;;;;;;5114069;28;20178;-80
2023/05/25 07:25:40;;;;;;;14.35;9.05;;;21.30;99.90;;;;;;5095704;28;20497;-79
2023/05/25 07:28:06;;;;;;;12.95;8.55;;;;;;;;;;5113445;28;20432;-81
2023/05/25 07:30:32;;;;;;;11.88;9.75;;;;;;;;;;5113987;28;20084;-79
2023/05/25 07:32:58;;;;;;;11.05;8.65;;;21.60;99.90;;;;;;5114508;28;20088;-78
2023/05/25 07:35:24;;;;;;;15.95;9.52;;;21.80;99.90;;;;;;5113763;28;20864;-81
2023/05/25 07:37:56;;;;;;;11.55;8.90;;;21.70;99.90;;;;;;5113962;28;20032;-79
2023/05/25 07:40:22;;;;;;;14.23;9.55;;;21.90;99.90;;;;;;5113882;28;20039;-78
2023/05/25 07:42:48;;;;;;;17.15;9.38;;;21.90;99.90;;;;;;5113341;28;20036;-78
2023/05/25 07:45:15;;;;;;;12.00;9.32;;;22.10;99.90;;;;;;5113860;28;20039;-79
2023/05/25 07:47:40;;;;;;;11.25;9.30;;;22.10;99.90;;;;;;5096572;28;20031;-79
2023/05/25 07:50:07;;;;;;;14.40;8.82;;;;;;;;;;5117430;28;20024;-79
2023/05/25 07:52:33;;;;;;;12.90;9.45;;;22.30;99.90;;;;;;5117779;28;20016;-78
2023/05/25 07:54:58;;;;;;;16.20;9.43;;;22.30;99.90;;;;;;5117442;28;20518;-80
2023/05/25 07:57:24;;;;;;;13.27;9.32;;;22.30;99.90;;;;;;5117200;28;20028;-80
2023/05/25 07:59:50;;;;;;;13.07;9.48;;;22.40;99.90;;;;;;5117432;28;20381;-79
2023/05/25 08:02:16;;;;;;;15.90;9.63;;;22.60;99.90;;;;;;5117574;28;20073;-80
2023/05/25 08:04:41;;;;;;;12.07;8.55;;;22.60;99.90;;;;;;5098717;28;20048;-80
2023/05/25 08:07:07;;;;;;;11.88;9.75;;;22.70;99.90;;;;;;5099136;28;20054;-79
2023/05/25 08:09:33;;;;;;;21.20;10.02;;;22.90;99.90;;;;;;5117130;28;20102;-79
2023/05/25 08:12:00;;;;;;;15.40;9.52;;;22.90;99.90;;;;;;5117432;28;20511;-81
2023/05/25 08:14:25;;;;;;;10.38;9.27;;;22.90;99.90;;;;;;5099035;28;20023;-81
2023/05/25 08:16:51;;;;;;;15.80;9.60;;;;;;;;;;5117029;28;20084;-79
2023/05/25 08:19:17;;;;;;;11.35;9.10;;;23.00;99.90;;;;;;5116660;28;20409;-80
2023/05/25 08:21:43;;;;;;;13.50;9.32;;;23.10;99.90;;;;;;5117145;28;20039;-79
2023/05/25 08:24:09;;;;;;;9.60;8.60;;;23.50;99.90;;;;;;5098567;28;20028;-77
2023/05/25 08:26:35;;;;;;;11.57;9.48;;;23.40;99.90;;;;;;5098723;28;20043;-79
2023/05/25 08:29:04;;;;;;;11.25;9.20;;;23.40;99.90;;;;;;5117112;28;20106;-81
2023/05/25 08:31:31;;;;;;;10.27;8.98;;;23.60;99.90;;;;;;5117079;28;20027;-82
2023/05/25 08:33:57;;;;;;;13.88;9.90;;;23.60;99.90;;;;;;5098837;28;20051;-81
2023/05/25 08:36:25;;;;;;;11.10;9.90;;;23.80;99.90;;;;;;5117215;28;20035;-81
2023/05/25 08:38:50;;;;;;;10.63;9.52;;;23.70;99.90;;;;;;5098242;28;20031;-80
2023/05/25 08:41:18;;;;;;;12.27;9.88;;;23.90;99.90;;;;;;5098602;28;20027;-78
2023/05/25 08:43:44;;;;;;;12.80;9.63;;;23.90;99.90;;;;;;5098542;28;20126;-81
2023/05/25 08:46:11;;;;;;;9.48;8.57;;;;;;;;;;5116319;28;20115;-79
2023/05/25 08:48:37;;;;;;;11.45;8.57;;;;;;;;;;5116477;28;20023;-79
2023/05/25 08:51:08;;;;;;;9.32;8.10;;;;;;;;;;5098404;28;20380;-80
2023/05/25 08:53:38;;;;;;;10.18;9.07;;;;;;;;;;5116231;28;20028;-81
2023/05/25 08:56:19;;;;;;;11.02;8.88;;;;;;;;;;5115795;28;20030;-79
2023/05/25 08:58:52;;;;;;;10.40;8.60;;;;;;;;;;5108011;28;20103;-81
2023/05/25 09:01:20;;;;;;;9.85;8.85;;;;;;;;;;5089960;28;20032;-81
2023/05/25 09:03:48;;;;;;;8.95;8.05;;;;;;;;;;5116245;28;20028;-78
2023/05/25 09:06:15;;;;;;;9.98;7.60;;;;;;;;;;5097134;28;20054;-82
2023/05/25 09:08:42;;;;;;;10.80;7.55;;;;;;;;;;5097618;28;20034;-79
2023/05/25 09:11:08;;;;;;;9.60;8.70;;;;;;;;;;5116312;28;20085;-80
2023/05/25 09:13:34;;;;;;;8.13;7.43;;;;;;;;;;5096518;28;20020;-82
2023/05/25 09:16:01;;;;;;;9.88;7.50;;;;;;;;;;5115152;28;20038;-79
2023/05/25 09:18:27;;;;;;;8.38;7.57;;;;;;;;;;5114805;28;20438;-80
2023/05/25 09:20:54;;;;;;;13.80;7.38;;;;;;;;;;5115093;28;20024;-78
2023/05/25 09:23:20;;;;;;;8.00;7.20;;;;;;;;;;5115096;28;20028;-81
2023/05/25 09:25:49;;;;;;;9.23;7.22;;;;;;;;;;5115041;28;20038;-79
2023/05/25 09:28:19;;;;;;;8.30;7.50;;;;;;;;;;5114600;28;20019;-78
2023/05/25 09:30:45;;;;;;;8.57;7.78;;;;;;;;;;5115298;28;20077;-80
2023/05/25 09:33:11;;;;;;;8.98;7.60;;;;;;;;;;5096830;28;20019;-80
2023/05/25 09:35:38;;;;;;;10.40;8.20;;;;;;;;;;5115115;28;20051;-80
2023/05/25 09:38:05;;;;;;;8.40;7.70;;;;;;;;;;5115201;28;20019;-79
2023/05/25 09:40:34;;;;;;;8.85;7.28;;;;;;;;;;5114825;28;20024;-78
2023/05/25 09:43:02;;;;;;;7.75;7.05;;;;;;;;;;5114735;28;20054;-80
2023/05/25 09:45:29;;;;;;;8.27;7.47;;;;;;;;;;5096382;28;20035;-80
2023/05/25 09:47:58;;;;;;;8.10;7.38;;;;;;;;;;5096649;28;20469;-79
2023/05/25 09:50:28;;;;;;;7.90;7.10;;;;;;;;;;5114663;28;20030;-79
2023/05/25 09:52:59;;;;;;;8.15;7.35;;;;;;;;;;5096898;28;20420;-78
2023/05/25 09:55:29;;;;;;;7.90;7.17;;;;;;;;;;5114528;28;20064;-81
2023/05/25 09:57:55;;;;;;;8.52;7.82;;;;;;;;;;5114452;28;20297;-80
2023/05/25 10:00:25;;;;;;;8.40;7.50;;;;;;;;;;5114339;28;20024;-79
2023/05/25 10:02:51;;;;;;;8.45;7.70;;;;;;;;;;5113999;28;20128;-79
2023/05/25 10:05:18;;;;;;;8.43;7.40;;;;;;;;;;5096513;28;20054;-80
2023/05/25 10:07:45;;;;;;;8.90;8.00;;;;;;;;;;5096801;28;20063;-80
2023/05/25 10:10:14;;;;;;;9.13;8.23;;;;;;;;;;5113451;28;20030;-75
2023/05/25 10:12:41;;;;;;;8.55;7.70;;;;;;;;;;5114563;28;20016;-77
2023/05/25 10:15:08;;;;;;;7.63;6.75;;;;;;;;;;5114800;28;20093;-77
2023/05/25 10:17:35;;;;;;;8.18;7.45;;;;;;;;;;5114879;28;20034;-77
2023/05/25 10:20:04;;;;;;;8.38;7.55;;;;;;;;;;5114949;28;20028;-76
2023/05/25 10:22:33;;;;;;;9.75;7.10;;;;;;;;;;5096484;28;20035;-77
2023/05/25 10:25:13;;;;;;;10.48;8.43;;;;;;;;;;5096134;28;20078;-77
2023/05/25 10:27:53;;;;;;;8.57;7.60;;;;;;;;;;5114550;28;20023;-77
2023/05/25 10:30:19;;;;;;;8.25;7.55;;;;;;;;;;5095905;28;20091;-77
2023/05/25 10:32:46;;;;;;;8.70;8.00;;;;;;;;;;5114456;28;20030;-78
2023/05/25 10:35:13;;;;;;;8.65;7.80;;;;;;;;;;5096480;28;20027;-77
2023/05/25 10:37:40;;;;;;;10.27;9.00;;;;;;;;;;5096152;28;20475;-77
2023/05/25 10:40:10;;;;;;;8.90;8.00;;;;;;;;;;5114389;28;20023;-77
2023/05/25 10:42:37;;;;;;;9.65;8.75;;;;;;;;;;5114203;28;20427;-76
2023/05/25 10:45:05;;;;;;;9.18;7.85;;;;;;;;;;5095845;28;20038;-76
2023/05/25 10:47:31;;;;;;;9.20;8.30;;;;;;;;;;5096092;28;20458;-78
2023/05/25 10:50:00;;;;;;;10.00;9.20;;;;;;;;;;5096140;28;20031;-78
2023/05/25 10:52:30;;;;;;;9.30;8.40;;;;;;;;;;5114037;28;20028;-76
2023/05/25 10:54:57;;;;;;;8.02;7.30;;;;;;;;;;5114212;28;20022;-78
2023/05/25 10:57:24;;;;;;;9.90;9.02;;;;;;;;;;5114352;28;20047;-77
2023/05/25 10:59:58;;;;;;;10.95;8.57;;;;;;;;;;5113891;28;20099;-79
2023/05/25 11:02:27;;;;;;;9.57;8.68;;;;;;;;;;5095847;28;20543;-77
2023/05/25 11:05:13;;;;;;;9.80;8.90;;;;;;;;;;5095685;28;20052;-78
2023/05/25 11:07:54;;;;;;;8.90;8.10;;;;;;;;;;5113387;28;20035;-77
2023/05/25 11:10:20;;;;;;;;;;;;;;;;;;5114293;28;20080;-79
2023/05/25 11:12:46;;;;;;;9.32;8.52;;;;;;;;;;5113549;28;19912;-76
2023/05/25 11:15:16;;;;;;;11.10;7.68;;;;;;;;;;5114158;28;20032;-78
2023/05/25 11:17:46;;;;;;;10.15;8.32;;;;;;;;;;5114141;28;20024;-78
2023/05/25 11:20:30;;;;;;;7.97;7.38;;;;;;;;;;5112545;28;20024;-77
2023/05/25 11:22:57;;;;;;;7.97;7.15;;;;;;;;;;5099030;28;20023;-77
2023/05/25 11:25:40;;;;;;;8.98;8.07;;;;;;;;;;5118130;28;20032;-76
2023/05/25 11:28:07;;;;;;;9.02;8.25;;;;;;;;;;5097647;28;20121;-77
2023/05/25 11:30:34;;;;;;;8.60;7.80;;;;;;;;;;5117171;28;20030;-78
2023/05/25 11:33:03;;;;;;;8.88;8.15;;;;;;;;;;5099859;28;20430;-77
2023/05/25 11:35:35;;;;;;;7.70;7.00;;;;;;;;;;5117366;28;20106;-79
2023/05/25 11:38:05;;;;;;;8.65;7.30;;;;;;;;;;5074291;28;20033;-77
2023/05/25 11:40:31;;;;;;;8.20;7.50;;;;;;;;;;5057144;28;20052;-78
2023/05/25 11:42:59;;;;;;;8.77;7.35;;;;;;;;;;5074429;28;20398;-79
2023/05/25 11:45:28;;;;;;;8.23;7.55;;;;;;;;;;5057992;28;20048;-78
2023/05/25 11:48:22;;;;;;;12.25;7.45;;;;;;;;;;5166214;27;20348;-78
2023/05/25 11:51:03;;;;;;;8.48;7.30;;;;;;;;;;5147498;27;20066;-78
2023/05/25 11:53:29;;;;;;;8.50;7.80;;;;;;;;;;5152662;27;20027;-78
2023/05/25 11:55:55;;;;;;;9.82;9.02;;;;;;;;;;5146885;27;20015;-77
2023/05/25 11:58:22;;;;;;;10.15;7.80;;;;;;;;;;5140991;27;20038;-78
2023/05/25 12:00:48;;;;;;;10.23;9.52;;;;;;;;;;5134178;27;20012;-79
2023/05/25 12:03:32;;;;;;;8.75;8.02;;;;;;;;;;5151988;27;20023;-80
2023/05/25 12:07:21;;;;;;;8.23;7.47;;;;;;;;;;5111256;27;20340;-75
2023/05/25 12:09:47;;;;;;;13.48;8.63;;;;;;;;;;5092024;28;20044;-76
2023/05/25 12:12:13;;;;;;;8.88;8.18;;;;;;;;;;5089688;28;20051;-76
2023/05/25 12:14:49;;;;;;;8.10;7.40;;;;;;;;;;5091065;28;20020;-76
2023/05/25 12:19:24;;;;;;;8.13;7.53;;;;;;;;;;5102532;27;20139;-76
2023/05/25 12:21:51;;;;;;;8.63;7.93;;;;;;;;;;5086293;28;20028;-77
2023/05/25 12:24:18;;;;;;;9.02;6.85;;;;;;;;;;5076868;28;20021;-76
2023/05/25 12:26:48;;;;;;;8.07;7.45;;;;;;;;;;5090977;28;20031;-77
2023/05/25 12:29:14;;;;;;;7.97;7.38;;;;;;;;;;5087950;28;20032;-78
2023/05/25 12:31:40;;;;;;;8.52;7.82;;;;;;;;;;5091082;28;20073;-76
2023/05/25 12:34:08;;;;;;;8.30;7.70;;;;;;;;;;5091051;28;20024;-75
2023/05/25 12:38:58;;;;;;;9.00;8.30;;;;;;;;;;5075391;28;20911;-80
2023/05/25 12:41:25;;;;;;;8.30;7.50;;;;;;;;;;5071044;28;20041;-82
2023/05/25 12:43:51;;;;;;;11.52;8.10;;;;;;;;;;5071050;28;20029;-77
2023/05/25 12:46:26;;;;;;;9.57;8.57;;;;;;;;;;5070763;28;20017;-78
2023/05/25 12:48:52;;;;;;;8.90;8.20;;;;;;;;;;5069655;28;20027;-80
2023/05/25 12:51:18;;;;;;;8.13;7.43;;;;;;;;;;5061267;28;20367;-77
2023/05/25 12:53:48;;;;;;;8.15;7.53;;;;;;;;;;5062536;28;20386;-79
2023/05/25 12:56:14;;;;;;;8.15;7.05;;;;;;;;;;5071103;28;20028;-80
2023/05/25 12:58:40;;;;;;;8.50;7.63;;;;;;;;;;5070386;28;20037;-79
2023/05/25 13:01:09;;;;;;;8.30;7.50;;;;;;;;;;5069306;28;20036;-77
2023/05/25 13:03:36;;;;;;;9.32;8.50;;;;;;;;;;5070631;28;20036;-77
2023/05/25 13:06:02;;;;;;;8.10;7.32;;;;;;;;;;5070699;28;20034;-78
2023/05/25 13:08:28;;;;;;;8.20;7.50;;;;;;;;;;5069287;28;20032;-78
2023/05/25 13:10:55;;;;;;;7.22;6.72;;;;;;;;;;5070879;28;20028;-81
2023/05/25 13:13:21;;;;;;;8.05;6.75;;;;;;;;;;5068186;28;20013;-81
2023/05/25 13:15:47;;;;;;;8.45;7.63;;;;;;;;;;5069157;28;20047;-78
2023/05/25 13:18:13;;;;;;;11.68;7.65;;;;;;;;;;5069739;28;20367;-78
2023/05/25 13:20:39;;;;;;;22.60;10.65;;;;;;;;;;5051896;28;20398;-86
2023/05/25 13:23:06;;;;;;;16.15;10.93;;;;;;;;;;5069036;28;20107;-84
2023/05/25 13:25:32;;;;;;;13.00;10.23;;;;;;;;;;5069801;28;20063;-83